Orbital elements of FENGYUN 1C DEB
| Launched | 9 May 1999 |
| Flight ended | – |
| Launch site | Taiyuan Space Center, PRC |
| Owner | People's Republic of China |
| NORAD ID | 31083 |
| Date fetched |
Epoch osculation |
Inc. [°] |
Ecc. | RA asc node [hr] |
Arg Peri. [°] |
Mean anom [°] |
Mean motion [rev/day] |
Abs. mag |
| Date fetched |
Epoch osculation |
Inc. [°] |
Ecc. | RA asc node [hr] |
Arg Peri. [°] |
Mean anom [°] |
Mean motion [rev/day] |
Abs. mag |
| 2026 May 05 17:57 | 2026 May 05 07:19:27 | 98.6527 | 0.00306 | 16.9955 | 219.6922 | 170.5551 | 14.66450 | – |
| 2026 May 04 17:57 | 2026 Apr 30 14:46:39 | 98.6513 | 0.00302 | 16.6661 | 233.8589 | 170.5551 | 14.66450 | – |
| 2026 May 03 17:57 | 2026 Apr 30 14:46:39 | 98.6513 | 0.00302 | 16.6661 | 233.8589 | 170.5551 | 14.66450 | – |
| 2026 May 02 17:57 | 2026 Apr 30 14:46:39 | 98.6513 | 0.00302 | 16.6661 | 233.8589 | 170.5551 | 14.66450 | – |
| 2026 May 01 17:56 | 2026 Apr 30 14:46:39 | 98.6513 | 0.00302 | 16.6661 | 233.8589 | 170.5551 | 14.66450 | – |
| 2026 Apr 30 17:56 | 2026 Apr 30 14:46:39 | 98.6513 | 0.00302 | 16.6661 | 233.8589 | 170.5551 | 14.66450 | – |
| 2026 Apr 29 17:57 | 2026 Apr 24 07:38:28 | 98.6509 | 0.00296 | 16.2238 | 253.3768 | 170.5551 | 14.66450 | – |
| 2026 Apr 28 17:56 | 2026 Apr 24 07:38:28 | 98.6509 | 0.00296 | 16.2238 | 253.3768 | 170.5551 | 14.66450 | – |
| 2026 Apr 27 17:58 | 2026 Apr 24 07:38:28 | 98.6509 | 0.00296 | 16.2238 | 253.3768 | 170.5551 | 14.66450 | – |
| 2026 Apr 26 17:58 | 2026 Apr 24 07:38:28 | 98.6509 | 0.00296 | 16.2238 | 253.3768 | 170.5551 | 14.66450 | – |
| 2026 Apr 25 17:58 | 2026 Apr 24 07:38:28 | 98.6509 | 0.00296 | 16.2238 | 253.3768 | 170.5551 | 14.66450 | – |
| 2026 Apr 24 17:59 | 2026 Apr 24 07:38:28 | 98.6509 | 0.00296 | 16.2238 | 253.3768 | 170.5551 | 14.66450 | – |
| 2026 Apr 23 17:57 | 2026 Apr 19 08:03:06 | 98.6511 | 0.00292 | 15.8738 | 269.1940 | 170.5551 | 14.66450 | – |
| 2026 Apr 22 17:57 | 2026 Apr 19 08:03:06 | 98.6511 | 0.00292 | 15.8738 | 269.1940 | 170.5551 | 14.66450 | – |
| 2026 Apr 21 17:57 | 2026 Apr 19 08:03:06 | 98.6511 | 0.00292 | 15.8738 | 269.1940 | 170.5551 | 14.66450 | – |
| 2026 Apr 20 17:57 | 2026 Apr 19 08:03:06 | 98.6511 | 0.00292 | 15.8738 | 269.1940 | 170.5551 | 14.66450 | – |
| 2026 Apr 19 17:58 | 2026 Apr 19 08:03:06 | 98.6511 | 0.00292 | 15.8738 | 269.1940 | 170.5551 | 14.66450 | – |
| 2026 Apr 18 17:56 | 2026 Apr 13 01:30:59 | 98.6489 | 0.00288 | 15.4335 | 289.5117 | 170.5551 | 14.66450 | – |
| 2026 Apr 16 17:57 | 2026 Apr 13 01:30:59 | 98.6489 | 0.00288 | 15.4335 | 289.5117 | 170.5551 | 14.66450 | – |
| 2026 Apr 14 17:57 | 2026 Apr 13 01:30:59 | 98.6489 | 0.00288 | 15.4335 | 289.5117 | 170.5551 | 14.66450 | – |
| 2026 Apr 13 17:57 | 2026 Apr 13 01:30:59 | 98.6489 | 0.00288 | 15.4335 | 289.5117 | 170.5551 | 14.66450 | – |
| 2026 Apr 12 17:57 | 2026 Apr 08 06:40:31 | 98.6491 | 0.00284 | 15.0976 | 305.3185 | 170.5551 | 14.66450 | – |
| 2026 Apr 11 17:57 | 2026 Apr 08 06:40:31 | 98.6491 | 0.00284 | 15.0976 | 305.3185 | 170.5551 | 14.66450 | – |
| 2026 Apr 10 17:58 | 2026 Apr 08 06:40:31 | 98.6491 | 0.00284 | 15.0976 | 305.3185 | 170.5551 | 14.66450 | – |
| 2026 Apr 09 18:01 | 2026 Apr 08 06:40:31 | 98.6491 | 0.00284 | 15.0976 | 305.3185 | 170.5551 | 14.66450 | – |
| 2026 Apr 08 17:57 | 2026 Apr 08 06:40:31 | 98.6491 | 0.00284 | 15.0976 | 305.3185 | 170.5551 | 14.66450 | – |